createdAt,value
2023-01-17T00:01:59.349Z,5.60
2023-01-17T00:04:44.868Z,5.61
2023-01-17T00:07:31.318Z,5.58
2023-01-17T00:10:02.918Z,5.53
2023-01-17T00:12:32.365Z,5.57
2023-01-17T00:15:01.082Z,5.40
2023-01-17T00:17:30.793Z,5.41
2023-01-17T00:20:18.665Z,5.57
2023-01-17T00:23:05.873Z,5.50
2023-01-17T00:25:55.962Z,5.42
2023-01-17T00:28:23.849Z,5.38
2023-01-17T00:30:50.744Z,5.32
2023-01-17T00:33:17.611Z,5.41
2023-01-17T00:35:44.745Z,5.51
2023-01-17T00:38:13.738Z,5.40
2023-01-17T00:40:44.575Z,5.43
2023-01-17T00:43:31.780Z,5.46
2023-01-17T00:46:17.733Z,5.63
2023-01-17T00:49:04.279Z,5.44
2023-01-17T00:51:51.380Z,5.68
2023-01-17T00:54:37.397Z,5.71
2023-01-17T00:57:24.941Z,5.86
2023-01-17T01:00:11.058Z,5.84
2023-01-17T01:02:57.091Z,5.82
2023-01-17T01:05:43.602Z,5.90
2023-01-17T01:08:37.904Z,6.04
2023-01-17T01:11:25.600Z,6.01
2023-01-17T01:14:12.736Z,5.91
2023-01-17T01:16:58.112Z,6.01
2023-01-17T01:19:44.251Z,6.11
2023-01-17T01:22:29.389Z,6.10
2023-01-17T01:25:15.437Z,6.12
2023-01-17T01:28:01.214Z,6.13
2023-01-17T01:30:49.110Z,6.26
2023-01-17T01:33:19.566Z,6.28
2023-01-17T01:35:53.980Z,6.00
2023-01-17T01:38:24.418Z,5.67
2023-01-17T01:40:54.500Z,5.65
2023-01-17T01:43:42.225Z,5.72
2023-01-17T01:46:14.646Z,5.77
2023-01-17T01:48:48.305Z,5.90
2023-01-17T01:51:23.238Z,5.99
2023-01-17T01:53:55.322Z,5.90
2023-01-17T01:56:24.755Z,5.97
2023-01-17T01:58:54.737Z,5.90
2023-01-17T02:01:24.144Z,5.94
2023-01-17T02:03:53.230Z,6.04
2023-01-17T02:06:33.402Z,6.15
2023-01-17T02:09:05.511Z,6.12
2023-01-17T02:11:34.677Z,6.07
2023-01-17T02:14:05.722Z,6.05
2023-01-17T02:16:51.452Z,6.15
2023-01-17T02:19:46.156Z,6.15
2023-01-17T02:22:42.847Z,6.28
2023-01-17T02:25:35.428Z,6.10
2023-01-17T02:28:20.263Z,6.02
2023-01-17T02:30:55.089Z,5.99
2023-01-17T02:33:33.203Z,6.02
2023-01-17T02:36:10.896Z,5.98
2023-01-17T02:38:47.732Z,5.97
2023-01-17T02:41:20.940Z,6.11
2023-01-17T02:43:50.516Z,6.24
2023-01-17T02:46:24.044Z,6.28
2023-01-17T02:48:53.230Z,6.21
2023-01-17T02:51:48.825Z,6.43
2023-01-17T02:54:42.512Z,6.35
2023-01-17T02:57:30.428Z,6.36
2023-01-17T03:00:07.486Z,6.46
2023-01-17T03:02:46.869Z,6.46
2023-01-17T03:05:20.377Z,6.49
2023-01-17T03:07:50.334Z,6.49
2023-01-17T03:10:20.399Z,6.22
2023-01-17T03:12:48.915Z,6.16
2023-01-17T03:15:19.616Z,6.07
2023-01-17T03:17:52.835Z,6.12
2023-01-17T03:20:22.636Z,6.17
2023-01-17T03:22:50.795Z,6.07
2023-01-17T03:25:19.570Z,6.17
2023-01-17T03:27:49.202Z,6.10
2023-01-17T03:30:21.553Z,6.13
2023-01-17T03:32:51.884Z,5.96
2023-01-17T03:35:20.010Z,5.93
2023-01-17T03:37:48.164Z,5.93
2023-01-17T03:40:18.609Z,5.63
2023-01-17T03:42:47.064Z,5.56
2023-01-17T03:45:16.566Z,5.84
2023-01-17T03:47:44.948Z,5.89
2023-01-17T03:50:15.867Z,5.99
2023-01-17T03:52:44.197Z,5.97
2023-01-17T03:55:12.234Z,6.10
2023-01-17T03:57:40.371Z,6.14
2023-01-17T04:00:11.114Z,6.12
2023-01-17T04:02:39.362Z,6.05
2023-01-17T04:05:08.090Z,6.05
2023-01-17T04:07:38.021Z,5.93
2023-01-17T04:10:08.626Z,5.94
2023-01-17T04:12:37.406Z,5.90
2023-01-17T04:15:06.053Z,5.98
2023-01-17T04:17:34.320Z,6.03
2023-01-17T04:20:02.363Z,6.09
2023-01-17T04:22:31.602Z,6.11
2023-01-17T04:25:00.992Z,6.09
2023-01-17T04:27:28.931Z,5.97
2023-01-17T04:29:56.881Z,5.97
2023-01-17T04:32:24.949Z,5.93
2023-01-17T04:34:53.100Z,5.66
2023-01-17T04:37:21.072Z,5.62
2023-01-17T04:39:49.683Z,5.27
2023-01-17T04:42:21.237Z,5.38
2023-01-17T04:44:49.576Z,5.28
2023-01-17T04:47:17.846Z,5.27
2023-01-17T04:49:45.923Z,5.38
2023-01-17T04:52:15.062Z,5.43
2023-01-17T04:54:42.995Z,5.50
2023-01-17T04:57:11.246Z,5.48
2023-01-17T04:59:40.679Z,5.55
2023-01-17T05:02:08.895Z,5.59
2023-01-17T05:04:37.153Z,5.64
2023-01-17T05:07:06.994Z,5.50
2023-01-17T05:09:35.760Z,5.34
2023-01-17T05:12:03.858Z,5.27
2023-01-17T05:14:34.314Z,5.07
2023-01-17T05:17:04.504Z,5.21
2023-01-17T05:19:32.629Z,5.33
2023-01-17T05:22:04.362Z,5.51
2023-01-17T05:24:32.933Z,5.65
2023-01-17T05:27:03.126Z,5.63
2023-01-17T05:29:31.994Z,5.52
2023-01-17T05:31:59.958Z,5.28
2023-01-17T05:34:29.591Z,5.34
2023-01-17T05:36:58.238Z,5.40
2023-01-17T05:39:27.191Z,5.54
2023-01-17T05:41:55.238Z,5.49
2023-01-17T05:44:23.533Z,5.56
2023-01-17T05:46:51.827Z,5.36
2023-01-17T05:49:20.371Z,5.37
2023-01-17T05:51:49.809Z,5.44
2023-01-17T05:54:18.430Z,5.48
2023-01-17T05:56:46.749Z,5.38
2023-01-17T05:59:17.254Z,5.45
2023-01-17T06:01:47.010Z,5.42
2023-01-17T06:04:15.214Z,5.34
2023-01-17T06:06:43.281Z,5.18
2023-01-17T06:09:12.906Z,5.14
2023-01-17T06:11:41.055Z,5.11
2023-01-17T06:14:09.671Z,5.22
2023-01-17T06:16:37.662Z,5.08
2023-01-17T06:19:06.852Z,5.01
2023-01-17T06:21:34.913Z,5.10
2023-01-17T06:24:04.334Z,4.87
2023-01-17T06:26:34.531Z,4.84
2023-01-17T06:29:04.935Z,4.68
2023-01-17T06:31:33.264Z,4.65
2023-01-17T06:34:04.660Z,4.58
2023-01-17T06:36:34.136Z,4.45
2023-01-17T06:39:02.489Z,4.59
2023-01-17T06:41:31.005Z,4.56
2023-01-17T06:44:00.793Z,4.54
2023-01-17T06:46:31.916Z,4.52
2023-01-17T06:49:00.191Z,4.65
2023-01-17T06:51:28.949Z,4.78
2023-01-17T06:53:57.017Z,4.74
2023-01-17T06:56:25.079Z,4.73
2023-01-17T06:58:53.323Z,4.81
2023-01-17T07:01:22.928Z,4.83
2023-01-17T07:03:52.447Z,4.91
2023-01-17T07:06:21.006Z,4.90
2023-01-17T07:08:49.482Z,4.75
2023-01-17T07:11:17.629Z,4.76
2023-01-17T07:13:45.595Z,4.90
2023-01-17T07:16:13.690Z,4.90
2023-01-17T07:18:43.831Z,4.78
2023-01-17T07:21:15.259Z,4.67
2023-01-17T07:23:43.575Z,4.86
2023-01-17T07:26:11.797Z,5.05
2023-01-17T07:28:39.759Z,5.01
2023-01-17T07:31:08.845Z,4.96
2023-01-17T07:33:37.109Z,4.91
2023-01-17T07:36:09.447Z,4.87
2023-01-17T07:38:37.687Z,4.55
2023-01-17T07:41:06.170Z,4.58
2023-01-17T07:43:35.669Z,4.58
2023-01-17T07:46:06.368Z,4.34
2023-01-17T07:48:34.786Z,4.42
2023-01-17T07:51:02.931Z,4.37
2023-01-17T07:53:33.441Z,4.41
2023-01-17T07:56:03.769Z,4.44
2023-01-17T07:58:32.648Z,4.52
2023-01-17T08:01:06.275Z,4.63
2023-01-17T08:03:39.883Z,4.70
2023-01-17T08:06:15.982Z,4.61
2023-01-17T08:08:46.399Z,4.44
2023-01-17T08:11:15.519Z,4.64
2023-01-17T08:13:43.589Z,4.76
2023-01-17T08:16:12.483Z,4.68
2023-01-17T08:18:40.914Z,4.64
2023-01-17T08:21:15.332Z,4.74
2023-01-17T08:23:45.051Z,4.78
2023-01-17T08:26:21.532Z,4.63
2023-01-17T08:28:50.651Z,4.57
2023-01-17T08:31:19.925Z,4.50
2023-01-17T08:33:48.032Z,4.32
2023-01-17T08:36:16.224Z,4.52
2023-01-17T08:38:46.138Z,4.51
2023-01-17T08:41:14.200Z,4.60
2023-01-17T08:43:42.127Z,4.53
2023-01-17T08:46:11.011Z,4.38
2023-01-17T08:48:39.390Z,4.55
2023-01-17T08:51:07.711Z,4.69
2023-01-17T08:53:36.149Z,4.56
2023-01-17T08:56:07.777Z,4.74
2023-01-17T08:58:36.115Z,4.87
2023-01-17T09:01:08.385Z,4.97
2023-01-17T09:03:38.385Z,5.04
2023-01-17T09:06:10.055Z,4.98
2023-01-17T09:08:38.772Z,5.01
2023-01-17T09:11:09.382Z,4.97
2023-01-17T09:13:38.054Z,5.11
2023-01-17T09:16:07.322Z,5.19
2023-01-17T09:18:37.028Z,5.27
2023-01-17T09:21:11.922Z,5.38
2023-01-17T09:23:40.324Z,5.37
2023-01-17T09:26:23.947Z,5.53
2023-01-17T09:28:53.618Z,5.52
2023-01-17T09:31:24.363Z,5.51
2023-01-17T09:33:54.530Z,5.69
2023-01-17T09:36:23.914Z,5.46
2023-01-17T09:38:57.499Z,5.59
2023-01-17T09:41:30.012Z,5.59
2023-01-17T09:44:07.409Z,5.60
2023-01-17T09:46:40.653Z,5.63
2023-01-17T09:49:13.075Z,5.31
2023-01-17T09:51:42.368Z,5.08
2023-01-17T09:54:21.815Z,4.80
2023-01-17T09:57:02.348Z,4.95
2023-01-17T09:59:42.834Z,4.79
2023-01-17T10:02:34.142Z,5.01
2023-01-17T10:05:26.328Z,5.11
2023-01-17T10:08:09.594Z,5.32
2023-01-17T10:10:43.312Z,5.37
2023-01-17T10:13:28.674Z,5.52
2023-01-17T10:16:19.097Z,5.28
2023-01-17T10:19:13.976Z,5.27
2023-01-17T10:22:02.209Z,5.12
2023-01-17T10:25:08.573Z,5.08
2023-01-17T10:27:42.706Z,4.50
2023-01-17T10:30:19.669Z,4.68
2023-01-17T10:32:50.806Z,4.78
2023-01-17T10:35:25.435Z,4.72
2023-01-17T10:37:57.033Z,4.66
2023-01-17T10:40:33.539Z,4.86
2023-01-17T10:43:07.229Z,4.69
2023-01-17T10:45:41.875Z,4.80
2023-01-17T10:48:17.836Z,4.82
2023-01-17T10:50:58.159Z,4.59
2023-01-17T10:53:42.507Z,4.76
2023-01-17T10:56:14.132Z,4.85
2023-01-17T10:58:42.317Z,4.93
2023-01-17T11:01:19.345Z,5.14
2023-01-17T11:03:51.488Z,5.24
2023-01-17T11:06:21.347Z,5.08
2023-01-17T11:08:54.833Z,5.41
2023-01-17T11:11:25.775Z,5.40
2023-01-17T11:13:55.641Z,5.33
2023-01-17T11:16:28.652Z,5.21
2023-01-17T11:19:09.970Z,5.33
2023-01-17T11:21:40.874Z,5.41
2023-01-17T11:24:18.773Z,5.46
2023-01-17T11:26:49.433Z,5.49
2023-01-17T11:29:31.751Z,5.76
2023-01-17T11:32:28.101Z,5.73
2023-01-17T11:35:21.723Z,5.80
2023-01-17T11:37:53.893Z,5.82
2023-01-17T11:40:27.761Z,6.13
2023-01-17T11:43:19.747Z,6.20
2023-01-17T11:46:01.194Z,6.25
2023-01-17T11:48:36.391Z,6.25
2023-01-17T11:51:12.498Z,6.12
2023-01-17T11:53:41.874Z,6.07
2023-01-17T11:56:12.936Z,6.15
2023-01-17T11:58:43.731Z,6.05
2023-01-17T12:01:32.957Z,6.36
2023-01-17T12:04:32.069Z,6.44
2023-01-17T12:07:11.947Z,6.19
2023-01-17T12:09:46.425Z,6.44
2023-01-17T12:12:39.717Z,6.38
2023-01-17T12:15:23.151Z,6.66
2023-01-17T12:18:13.565Z,7.06
2023-01-17T12:20:51.807Z,7.15
2023-01-17T12:23:48.626Z,6.88
2023-01-17T12:26:30.525Z,6.68
2023-01-17T12:29:30.572Z,6.42
2023-01-17T12:32:11.428Z,6.57
2023-01-17T12:34:47.185Z,6.56
2023-01-17T12:37:22.032Z,6.80
2023-01-17T12:39:59.520Z,6.95
2023-01-17T12:42:34.141Z,7.02
2023-01-17T12:45:09.385Z,6.82
2023-01-17T12:47:43.346Z,6.97
2023-01-17T12:50:23.632Z,6.74
2023-01-17T12:53:43.610Z,6.99
2023-01-17T12:56:19.173Z,7.10
2023-01-17T12:58:52.456Z,7.12
2023-01-17T13:01:29.528Z,6.74
2023-01-17T13:04:08.249Z,6.91
2023-01-17T13:06:51.007Z,6.84
2023-01-17T13:09:23.524Z,6.98
2023-01-17T13:11:58.191Z,6.78
2023-01-17T13:14:27.898Z,6.69
2023-01-17T13:16:59.196Z,6.63
2023-01-17T13:19:40.914Z,6.57
2023-01-17T13:22:17.358Z,6.87
2023-01-17T13:24:55.423Z,6.85
2023-01-17T13:28:06.360Z,6.84
2023-01-17T13:30:57.550Z,6.71
2023-01-17T13:33:39.517Z,6.53
2023-01-17T13:36:25.586Z,6.76
2023-01-17T13:39:13.932Z,6.86
2023-01-17T13:41:50.605Z,6.72
2023-01-17T13:44:22.938Z,6.82
2023-01-17T13:47:00.781Z,6.72
2023-01-17T13:49:35.705Z,6.61
2023-01-17T13:52:10.652Z,6.48
2023-01-17T13:54:50.931Z,6.55
2023-01-17T13:57:42.289Z,6.67
2023-01-17T14:00:59.366Z,6.82
2023-01-17T14:04:08.201Z,6.69
2023-01-17T14:06:41.909Z,6.77
2023-01-17T14:09:17.776Z,6.81
2023-01-17T14:12:05.701Z,6.82
2023-01-17T14:14:44.307Z,6.72
2023-01-17T14:17:49.326Z,6.78
2023-01-17T14:20:53.584Z,6.80
2023-01-17T14:23:26.708Z,6.94
2023-01-17T14:25:59.439Z,6.88
2023-01-17T14:28:32.768Z,6.89
2023-01-17T14:31:03.781Z,6.86
2023-01-17T14:33:37.329Z,6.80
2023-01-17T14:36:08.190Z,6.68
2023-01-17T14:38:43.363Z,6.69
2023-01-17T14:41:16.300Z,6.43
2023-01-17T14:43:45.377Z,6.34
2023-01-17T14:46:19.846Z,6.50
2023-01-17T14:48:47.943Z,6.37
2023-01-17T14:51:22.059Z,6.68
2023-01-17T14:53:55.456Z,6.64
2023-01-17T14:56:24.197Z,6.57
2023-01-17T14:59:07.566Z,6.80
2023-01-17T15:01:36.899Z,6.77
2023-01-17T15:04:05.639Z,6.94
2023-01-17T15:06:39.420Z,6.90
2023-01-17T15:09:12.088Z,6.74
2023-01-17T15:11:40.505Z,6.88
2023-01-17T15:14:09.160Z,6.84
2023-01-17T15:16:41.072Z,6.57
2023-01-17T15:19:13.449Z,6.53
2023-01-17T15:21:44.990Z,6.43
2023-01-17T15:24:20.871Z,6.31
2023-01-17T15:26:50.063Z,6.07
2023-01-17T15:29:24.393Z,6.14
2023-01-17T15:31:55.699Z,5.95
2023-01-17T15:34:29.798Z,6.06
2023-01-17T15:37:03.124Z,6.09
2023-01-17T15:39:34.030Z,5.99
2023-01-17T15:42:05.164Z,5.93
2023-01-17T15:44:47.543Z,5.83
2023-01-17T15:47:27.395Z,5.94
2023-01-17T15:49:56.070Z,5.66
2023-01-17T15:52:25.747Z,5.56
2023-01-17T15:54:54.790Z,5.62
2023-01-17T15:57:28.577Z,5.81
2023-01-17T15:59:59.967Z,5.76
2023-01-17T16:02:38.788Z,5.80
2023-01-17T16:05:44.433Z,5.69
2023-01-17T16:08:33.895Z,5.83
2023-01-17T16:11:03.887Z,5.84
2023-01-17T16:13:33.635Z,5.47
2023-01-17T16:16:17.029Z,5.63
2023-01-17T16:18:46.622Z,5.62
2023-01-17T16:21:20.989Z,5.72
2023-01-17T16:23:51.712Z,5.78
2023-01-17T16:26:20.680Z,5.70
2023-01-17T16:28:49.917Z,5.72
2023-01-17T16:31:17.995Z,5.75
2023-01-17T16:33:46.908Z,5.73
2023-01-17T16:36:16.538Z,5.73
2023-01-17T16:38:45.731Z,5.52
2023-01-17T16:41:15.310Z,5.62
2023-01-17T16:43:43.445Z,5.69
2023-01-17T16:46:13.914Z,5.84
2023-01-17T16:48:42.034Z,5.62
2023-01-17T16:51:10.352Z,5.74
2023-01-17T16:53:38.461Z,5.74
2023-01-17T16:56:10.201Z,5.77
2023-01-17T16:58:39.734Z,5.67
2023-01-17T17:01:11.337Z,5.67
2023-01-17T17:03:39.515Z,5.68
2023-01-17T17:06:08.788Z,5.57
2023-01-17T17:08:38.229Z,5.52
2023-01-17T17:11:15.235Z,5.34
2023-01-17T17:13:46.412Z,5.28
2023-01-17T17:16:17.786Z,5.40
2023-01-17T17:18:48.569Z,5.55
2023-01-17T17:21:17.017Z,5.38
2023-01-17T17:23:46.408Z,5.40
2023-01-17T17:26:16.186Z,5.27
2023-01-17T17:28:45.747Z,5.35
2023-01-17T17:31:13.769Z,5.34
2023-01-17T17:33:42.224Z,5.42
2023-01-17T17:36:11.113Z,5.24
2023-01-17T17:38:51.114Z,5.25
2023-01-17T17:41:21.529Z,5.17
2023-01-17T17:43:52.355Z,5.20
2023-01-17T17:46:21.254Z,5.08
2023-01-17T17:48:50.005Z,4.96
2023-01-17T17:51:23.486Z,4.75
2023-01-17T17:53:52.756Z,4.56
2023-01-17T17:56:21.385Z,4.65
2023-01-17T17:58:51.351Z,4.72
2023-01-17T18:01:19.594Z,4.76
2023-01-17T18:03:47.746Z,4.79
2023-01-17T18:06:17.513Z,4.85
2023-01-17T18:08:45.933Z,4.86
2023-01-17T18:11:17.793Z,4.83
2023-01-17T18:13:50.393Z,4.69
2023-01-17T18:16:23.338Z,4.66
2023-01-17T18:18:53.163Z,4.63
2023-01-17T18:21:23.839Z,4.82
2023-01-17T18:23:54.772Z,4.67
2023-01-17T18:26:25.000Z,4.75
2023-01-17T18:28:54.361Z,4.68
2023-01-17T18:31:25.186Z,4.75
2023-01-17T18:33:54.106Z,4.77
2023-01-17T18:36:24.270Z,4.62
2023-01-17T18:38:53.566Z,4.55
2023-01-17T18:41:24.270Z,4.59
2023-01-17T18:43:52.787Z,4.63
2023-01-17T18:46:23.247Z,4.63
2023-01-17T18:48:51.846Z,4.49
2023-01-17T18:51:21.847Z,4.58
2023-01-17T18:53:50.310Z,4.47
2023-01-17T18:56:20.870Z,4.35
2023-01-17T18:58:50.019Z,4.41
2023-01-17T19:01:19.868Z,4.50
2023-01-17T19:03:51.027Z,4.52
2023-01-17T19:06:20.890Z,4.39
2023-01-17T19:08:51.660Z,4.48
2023-01-17T19:11:20.644Z,4.27
2023-01-17T19:13:50.248Z,4.39
2023-01-17T19:16:21.163Z,4.57
2023-01-17T19:18:50.655Z,4.55
2023-01-17T19:21:21.759Z,4.42
2023-01-17T19:23:50.648Z,4.30
2023-01-17T19:26:20.405Z,4.30
2023-01-17T19:28:49.709Z,4.03
2023-01-17T19:31:20.435Z,3.91
2023-01-17T19:33:51.297Z,3.83
2023-01-17T19:36:21.863Z,3.98
2023-01-17T19:39:03.492Z,3.90
2023-01-17T19:41:32.693Z,3.84
2023-01-17T19:44:03.342Z,3.69
2023-01-17T19:46:32.592Z,3.79
2023-01-17T19:49:03.389Z,3.79
2023-01-17T19:51:32.300Z,3.79
2023-01-17T19:54:01.786Z,3.76
2023-01-17T19:56:30.948Z,3.61
2023-01-17T19:59:01.630Z,3.81
2023-01-17T20:01:32.732Z,3.83
2023-01-17T20:04:05.344Z,3.77
2023-01-17T20:06:36.223Z,3.89
2023-01-17T20:09:06.517Z,3.79
2023-01-17T20:11:35.422Z,3.94
2023-01-17T20:14:06.473Z,3.99
2023-01-17T20:16:36.943Z,4.04
2023-01-17T20:19:06.836Z,4.09
2023-01-17T20:21:35.261Z,4.02
2023-01-17T20:24:04.770Z,4.17
2023-01-17T20:26:37.465Z,4.14
2023-01-17T20:29:09.977Z,4.22
2023-01-17T20:31:39.059Z,4.06
2023-01-17T20:34:11.688Z,3.92
2023-01-17T20:36:41.718Z,4.05
2023-01-17T20:39:11.958Z,4.12
2023-01-17T20:41:41.852Z,4.14
2023-01-17T20:44:13.815Z,4.13
2023-01-17T20:46:42.483Z,4.19
2023-01-17T20:49:14.891Z,4.10
2023-01-17T20:51:44.235Z,4.28
2023-01-17T20:54:14.417Z,4.15
2023-01-17T20:56:43.040Z,4.33
2023-01-17T20:59:15.178Z,4.38
2023-01-17T21:01:44.958Z,4.37
2023-01-17T21:04:14.903Z,4.38
2023-01-17T21:06:44.375Z,4.39
2023-01-17T21:09:14.495Z,4.31
2023-01-17T21:11:42.635Z,4.13
2023-01-17T21:14:11.027Z,4.06
2023-01-17T21:16:39.558Z,4.01
2023-01-17T21:19:12.284Z,4.04
2023-01-17T21:21:41.676Z,4.01
2023-01-17T21:24:16.503Z,4.14
2023-01-17T21:26:46.045Z,4.24
2023-01-17T21:29:15.974Z,4.22
2023-01-17T21:31:45.132Z,4.20
2023-01-17T21:34:14.664Z,4.31
2023-01-17T21:36:44.435Z,4.18
2023-01-17T21:39:15.725Z,4.10
2023-01-17T21:41:46.662Z,4.03
2023-01-17T21:44:16.748Z,4.18
2023-01-17T21:46:44.620Z,4.06
2023-01-17T21:49:13.653Z,4.12
2023-01-17T21:51:59.908Z,4.24
2023-01-17T21:54:48.647Z,4.19
2023-01-17T21:57:35.433Z,4.12
2023-01-17T22:00:06.554Z,4.10
2023-01-17T22:02:40.152Z,4.09
2023-01-17T22:05:11.592Z,4.22
2023-01-17T22:07:40.406Z,4.10
2023-01-17T22:10:13.820Z,4.06
2023-01-17T22:12:41.977Z,4.41
2023-01-17T22:15:11.563Z,4.24
2023-01-17T22:17:41.142Z,4.33
2023-01-17T22:20:11.567Z,4.23
2023-01-17T22:22:39.882Z,4.13
2023-01-17T22:25:09.158Z,4.20
2023-01-17T22:27:38.644Z,4.16
2023-01-17T22:30:13.394Z,4.21
2023-01-17T22:32:42.407Z,4.14
2023-01-17T22:35:11.937Z,4.16
2023-01-17T22:37:41.392Z,4.17
2023-01-17T22:40:12.678Z,4.20
2023-01-17T22:42:43.395Z,4.14
2023-01-17T22:45:13.573Z,4.12
2023-01-17T22:47:41.863Z,3.95
2023-01-17T22:50:12.012Z,3.83
2023-01-17T22:52:39.991Z,3.75
2023-01-17T22:55:08.660Z,3.71
2023-01-17T22:57:36.588Z,3.47
2023-01-17T23:00:14.682Z,3.42
2023-01-17T23:02:43.587Z,3.50
2023-01-17T23:05:15.564Z,3.49
2023-01-17T23:07:44.973Z,3.69
2023-01-17T23:10:35.381Z,3.52
2023-01-17T23:13:03.539Z,3.59
2023-01-17T23:15:50.908Z,3.57
2023-01-17T23:18:36.479Z,3.67
2023-01-17T23:21:05.089Z,3.79
2023-01-17T23:23:33.544Z,3.95
2023-01-17T23:26:02.387Z,3.60
2023-01-17T23:28:29.626Z,3.70
2023-01-17T23:31:06.279Z,3.56
2023-01-17T23:33:34.711Z,3.47
2023-01-17T23:36:03.239Z,3.52
2023-01-17T23:38:34.293Z,3.41
2023-01-17T23:41:21.263Z,3.49
2023-01-17T23:43:53.494Z,3.47
2023-01-17T23:46:24.032Z,3.39
2023-01-17T23:48:52.254Z,3.36
2023-01-17T23:51:20.230Z,3.32
2023-01-17T23:53:48.362Z,3.25
2023-01-17T23:56:18.554Z,3.21
2023-01-17T23:58:46.746Z,3.38
